METAR stanice u blizini

 

LYBE - Beograd / Surčin, Srbija
Ažurirano: 20/09/2020 21:00
Vedro
Vedro
 Pravac vetra IJI
Vetar: IJI 17 km/h
Temperatura: 20°C
Tačka rose: 6°C
Vlažnost: 40%
Pritisak: 1017 hPa
Pregled: Vedro
Vidljivost: greater than 10 km
2020/09/20 19:00 LYBE 201900Z 11009KT CAVOK 20/06 Q1017 NOSIG
LYBT - Beograd / Batajnica, Srbija
Ažurirano: 20/09/2020 21:00
Vedro
Vedro
 Pravac vetra ISI
Vetar: ISI 13 km/h
Temperatura: 19°C
Tačka rose: 6°C
Vlažnost: 43%
Pritisak: 1017 hPa
Pregled: Vedro
Vidljivost: greater than 10 km
2020/09/20 19:00 LYBT 201900Z 06007KT 030V100 CAVOK 19/06 Q1017 NOSIG
LYVR - Vršac, Srbija
Ažurirano: 20/09/2020 21:00
Vedro
Vedro
 Pravac vetra JI
Vetar: JI 9 km/h
Temperatura: 20°C
Tačka rose: 5°C
Vlažnost: 38%
Pritisak: 1018 hPa
Pregled: Vedro
Vidljivost: greater than 10 km
2020/09/20 19:00 LYVR 201900Z AUTO 14005KT 090V190 CAVOK 20/05 Q1018
 
LYKV - Lađevci, Srbija
Ažurirano: 20/09/2020 21:00
Vedro
Vedro
 Pravac vetra calm
Vetar: Tišina
Temperatura: 14°C
Tačka rose: 10°C
Vlažnost: 77%
Pritisak: 1018 hPa
Pregled: Vedro
Vidljivost: greater than 10 km
2020/09/20 19:00 LYKV 201900Z 00000KT CAVOK 14/10 Q1018 NOSIG
LYNI - Niš, Srbija
Ažurirano: 20/09/2020 21:00
Vedro
Vedro
 Pravac vetra varies
Vetar: varies 2 km/h
Temperatura: 15°C
Tačka rose: 4°C
Vlažnost: 48%
Pritisak: 1018 hPa
Pregled: Vedro
Vidljivost: greater than 10 km
2020/09/20 19:00 LYNI 201900Z VRB01KT CAVOK 15/04 Q1018 NOSIG
BKPR - Priština, Srbija
Ažurirano: 20/09/2020 21:00
Vedro
Vedro
 Pravac vetra varies
Vetar: varies 4 km/h
Temperatura: 16°C
Tačka rose: 7°C
Vlažnost: 55%
Pritisak: 1018 hPa
Pregled: Vedro
Vidljivost: greater than 10 km
2020/09/20 19:00 BKPR 201900Z VRB02KT CAVOK 16/07 Q1018 NOSIG
 
LHPP - Pecs / Pogany, Hungary
Ažurirano: 20/09/2020 19:45
NOT Current
Vedro
Vedro
 Pravac vetra I
Vetar: I 7 km/h
Temperatura: 20°C
Tačka rose: 10°C
Vlažnost: 53%
Pritisak: 1017 hPa
Pregled: Vedro
Vidljivost: greater than 10 km
2020/09/20 17:45 LHPP 201745Z 09004KT CAVOK 20/10 Q1017
LHUD - Szeged, Hungary
Ažurirano: 04/07/2019 01:45
NOT Current
Vedro
Vedro
 Pravac vetra S
Vetar: S 7 km/h
Temperatura: 18°C
Tačka rose: 13°C
Vlažnost: 73%
Pritisak: 1019 hPa
Pregled: Vedro
Vidljivost: greater than 10 km
2019/07/03 23:45 LHUD 032345Z 35004KT CAVOK 18/13 Q1019
LRTR - Timisoara, Romania
Ažurirano: 20/09/2020 21:00
Vedro
Vedro
 Pravac vetra JI
Vetar: JI 6 km/h
Temperatura: 17°C
Tačka rose: 9°C
Vlažnost: 59%
Pritisak: 1018 hPa
Pregled: Vedro
Vidljivost: greater than 10 km
2020/09/20 19:00 LRTR 201900Z 13003KT CAVOK 17/09 Q1018 NOSIG
 
LRCV - Craiova, Romania
Ažurirano: 20/09/2020 21:00
Vedro
Vedro
 Pravac vetra IJI
Vetar: IJI 11 km/h
Temperatura: 16°C
Tačka rose: 2°C
Vlažnost: 39%
Pritisak: 1020 hPa
Pregled: Vedro
Vidljivost: greater than 10 km
2020/09/20 19:00 LRCV 201900Z 12006KT CAVOK 16/02 Q1020
LBSF - Sofia, Bulgaria
Ažurirano: 20/09/2020 21:00
Vedro
Vedro
 Pravac vetra JI
Vetar: JI 9 km/h
Temperatura: 15°C
Tačka rose: 3°C
Vlažnost: 45%
Pritisak: 1020 hPa
Pregled: Vedro
Vidljivost: greater than 10 km
2020/09/20 19:00 LBSF 201900Z 14005KT CAVOK 15/03 Q1020 NOSIG
LWSK - Skoplje, Makedonija
Ažurirano: 20/09/2020 21:00
Vedro
Vedro
 Pravac vetra calm
Vetar: Tišina
Temperatura: 18°C
Tačka rose: 10°C
Vlažnost: 60%
Pritisak: 1017 hPa
Pregled: Vedro
Vidljivost: greater than 10 km
2020/09/20 19:00 LWSK 201900Z 00000KT CAVOK 18/10 Q1017 NOSIG
 
LYPG - Podgorica, Crna Gora
Ažurirano: 20/09/2020 21:00
Vedro
Vedro
 Pravac vetra JI
Vetar: JI 9 km/h
Temperatura: 23°C
Tačka rose: 15°C
Vlažnost: 61%
Pritisak: 1014 hPa
Pregled: Vedro
Vidljivost: greater than 10 km
2020/09/20 19:00 LYPG 201900Z 14005KT CAVOK 23/15 Q1014 NOSIG
LQSA - Sarajevo, Bosna i Hercegovina
Ažurirano: 20/09/2020 21:00
Vedro
Vedro
 Pravac vetra SSZ
Vetar: SSZ 7 km/h
Temperatura: 19°C
Tačka rose: 15°C
Vlažnost: 78%
Pritisak: 1018 hPa
Pregled: Vedro
Vidljivost: greater than 10 km
2020/09/20 19:00 LQSA 201900Z 33004KT 290V040 CAVOK 19/15 Q1018 NOSIG
LDOS - Osijek, Hrvatksa
Ažurirano: 20/09/2020 21:00
Vedro
Vedro
 Pravac vetra I
Vetar: I 9 km/h
Temperatura: 17°C
Tačka rose: 10°C
Vlažnost: 64%
Pritisak: 1017 hPa
Pregled: Vedro
Vidljivost: greater than 10 km
2020/09/20 19:00 LDOS 201900Z 09005KT CAVOK 17/10 Q1017